avis per tempestes more information blitzortung!


avis per Pluja more information rain snow radar


Visita la nostra xarxa de llocs de meteo:

Template documentation
and downloads

And another site



Rain From: 17-08-2018 13:00 Until: 22:59 warning for: Rain Level: Orange info button
Thunderstorms From: 17-08-2018 12:00 Until: 18-08-2018 08:59 warning for: Thunderstorms Level: Yellow info button

Pagina Historial Weather Underground text

Diari Resum Juny 16, 2017 Unitats:  Mètric    Imperial   Tant
« Previous Dia
SegĂźent Dia »
Diari Setmana Mensual Anual Personalitzada
  Maxima: Minima: Media:
Temperatura: -17.8 °C -5.1 °C -0.9 °C
Punt de rosada: -17.8 °C -13 °C -9.7 °C
Humitat: Humidity % 28 % 39 %
Wind Speed: 0 km/h 0 km/h 12.9 km/h
RĂ fegues de vent: 0 km/h - -
Vent:- - SSW
Pression baro: 0 hPa 34395 hPa -
Precipitacions: 0 mm    
Historical Graphs
 
 
Dades de taula per Juny 16, 2017
Temps Temperatura Punt de rosada Pression baro Vent Wind Speed RĂ fegues de vent Humitat Rainfall Rate (Hourly)
-17.8 °C -17.8 °C 0 hPa Calm     Humidity % 0 mm
00:03 -3.3 °C -13 °C 34395 hPa WNW 6 km/h 6 km/h 33 % 0 mm
04:15 -2.3 °C -10.1 °C 34462.7 hPa Calm   5.1 km/h 42 % 0 mm
04:25 -2.2 °C -10 °C 34462.7 hPa NE 5.1 km/h 7.7 km/h 42 % 0 mm
04:35 -2.1 °C -10.1 °C 34462.7 hPa NE 2.6 km/h 7.7 km/h 41 % 0 mm
04:45 -1.7 °C -9.8 °C 34462.7 hPa NE 5.1 km/h 10.3 km/h 41 % 0 mm
04:55 -1.6 °C -9.9 °C 34462.7 hPa NE 5.1 km/h 10.3 km/h 40 % 0 mm
05:05 -1.4 °C -9.8 °C 34462.7 hPa ENE 5.1 km/h 10.3 km/h 40 % 0 mm
10:15 -1.4 °C -9.9 °C 34462.7 hPa ENE 11.9 km/h 11.9 km/h 39 % 0 mm
10:20 -1.4 °C -10.2 °C 34462.7 hPa ENE 11.9 km/h 12.2 km/h 38 % 0 mm
10:25 -1.3 °C -10.1 °C 34462.7 hPa NNE 15 km/h 15 km/h 38 % 0 mm
10:30 -1.2 °C -9.9 °C 34462.7 hPa ENE 12.2 km/h 12.2 km/h 38 % 0 mm
10:35 -1.1 °C -9.9 °C 34462.7 hPa NNE 11.9 km/h 11.9 km/h 38 % 0 mm
10:40 -1 °C -9.8 °C 34462.7 hPa NE 17.9 km/h 17.9 km/h 38 % 0 mm
10:45 -0.8 °C -9.7 °C 34462.7 hPa East 8 km/h 8 km/h 38 % 0 mm
10:50 -0.8 °C -9.6 °C 34462.7 hPa East 9.3 km/h   38 % 0 mm
10:55 -0.7 °C -9.8 °C 34462.7 hPa SSW 9 km/h 9 km/h 37 % 0 mm
11:00 -0.4 °C -9.8 °C 34462.7 hPa West 9 km/h 9 km/h 36 % 0 mm
11:05 -0.1 °C -9.4 °C 34462.7 hPa ESE 14 km/h 14 km/h 36 % 0 mm
11:10 -0.2 °C -9.6 °C 34462.7 hPa SW 7.6 km/h 7.6 km/h 36 % 0 mm
11:15 -0.1 °C -9.5 °C 34462.7 hPa NW 9 km/h 9 km/h 36 % 0 mm
11:20 -0.3 °C -9.7 °C 34462.7 hPa NE 11.9 km/h 11.9 km/h 36 % 0 mm
11:25 0.1 °C -9.3 °C 34462.7 hPa WNW 6.3 km/h 6.3 km/h 36 % 0 mm
11:30 0.3 °C -9.3 °C 34462.7 hPa SSW 9 km/h 9 km/h 35 % 0 mm
11:35 0.1 °C -9.6 °C 34462.7 hPa SW 15 km/h 15 km/h 35 % 0 mm
11:40 0.3 °C -9.4 °C 34462.7 hPa SSW 6 km/h 6 km/h 35 % 0 mm
11:45 0.4 °C -9.5 °C 34462.7 hPa West 9 km/h 9 km/h 34 % 0 mm
11:50 0.8 °C -9.2 °C 34462.7 hPa South 8 km/h 8 km/h 34 % 0 mm
11:55 1 °C -9.3 °C 34462.7 hPa ESE 9 km/h 9 km/h 33 % 0 mm
12:00 0.6 °C -9.7 °C 34462.7 hPa WSW 17.9 km/h 17.9 km/h 33 % 0 mm
12:05 0.6 °C -9.7 °C 34462.7 hPa ESE 11.9 km/h 11.9 km/h 33 % 0 mm
12:10 0.4 °C -9.8 °C 34462.7 hPa SW 9.8 km/h 9.8 km/h 33 % 0 mm
12:15 0.7 °C -9.8 °C 34462.7 hPa SSE 15 km/h 15 km/h 32 % 0 mm
12:20 0.6 °C -9.9 °C 34462.7 hPa NW 11.9 km/h 11.9 km/h 32 % 0 mm
12:25 0.6 °C -9.9 °C 34462.7 hPa ENE 11.9 km/h 11.9 km/h 32 % 0 mm
12:30 0.7 °C -9.8 °C 34462.7 hPa North 9 km/h 9 km/h 32 % 0 mm
12:35 0.6 °C -9.4 °C 34462.7 hPa South 11.9 km/h 11.9 km/h 34 % 0 mm
12:40 0.6 °C -9.4 °C 34462.7 hPa ESE 15 km/h 15 km/h 34 % 0 mm
12:45 0.4 °C -9.3 °C 34428.8 hPa ESE 22 km/h 22 km/h 35 % 0 mm
12:50 0.1 °C -9.6 °C 34428.8 hPa ENE 17.9 km/h 17.9 km/h 35 % 0 mm
12:55 0.3 °C -9.1 °C 34428.8 hPa NNE 16.1 km/h 16.1 km/h 36 % 0 mm
13:00 0.7 °C -9.3 °C 34428.8 hPa WSW 23.8 km/h 23.8 km/h 34 % 0 mm
13:05 1.2 °C -9.4 °C 34428.8 hPa South 9 km/h 9 km/h 32 % 0 mm
13:10 1.3 °C -9.3 °C 34428.8 hPa SSW 9 km/h 9 km/h 32 % 0 mm
13:15 1.4 °C -9.2 °C 34428.8 hPa SSW 15 km/h 15 km/h 32 % 0 mm
13:20 1.6 °C -9.3 °C 34428.8 hPa SW 20.9 km/h 20.9 km/h 31 % 0 mm
13:25 1.6 °C -9.6 °C 34428.8 hPa SSW 9 km/h 9 km/h 30 % 0 mm
13:30 1.6 °C -9.6 °C 34428.8 hPa SSW 15 km/h 15 km/h 30 % 0 mm
13:35 2 °C -9.6 °C 34428.8 hPa SE 6 km/h 6 km/h 29 % 0 mm
13:40 1.6 °C -9.9 °C 34428.8 hPa South 29.8 km/h 29.8 km/h 29 % 0 mm
13:45 1.6 °C -9.6 °C 34428.8 hPa SW 15 km/h 15 km/h 30 % 0 mm
13:50 1.8 °C -9.7 °C 34428.8 hPa WSW 15.3 km/h 15.3 km/h 29 % 0 mm
13:55 1.5 °C -9.9 °C 34428.8 hPa SSW 26.9 km/h 26.9 km/h 29 % 0 mm
14:00 1.6 °C -9.9 °C 34428.8 hPa SSE 15 km/h 15 km/h 29 % 0 mm
14:05 1.9 °C -9.9 °C 34428.8 hPa SW 15 km/h 15 km/h 28 % 0 mm
14:10 1.7 °C -10.1 °C 34428.8 hPa West 15 km/h 15 km/h 28 % 0 mm
14:15 1.7 °C -10.1 °C 34428.8 hPa SSW 20.9 km/h 20.9 km/h 28 % 0 mm
14:20 1.6 °C -9.9 °C 34428.8 hPa SW 23.8 km/h 23.8 km/h 29 % 0 mm
14:25 1.2 °C -10.2 °C 34428.8 hPa SW 23.8 km/h 23.8 km/h 29 % 0 mm
14:30 1.5 °C -9.9 °C 34428.8 hPa SW 17.9 km/h 17.9 km/h 29 % 0 mm
14:35 1.4 °C -10.1 °C 34428.8 hPa WSW 17.9 km/h 17.9 km/h 29 % 0 mm
14:40 1.3 °C -10.1 °C 34428.8 hPa SSW 27.7 km/h 27.7 km/h 29 % 0 mm
14:45 1.4 °C -10.1 °C 34428.8 hPa WSW 20.9 km/h 20.9 km/h 29 % 0 mm
14:50 1.3 °C -10.2 °C 34428.8 hPa SSW 7.6 km/h 7.6 km/h 29 % 0 mm
14:55 1.3 °C -10.1 °C 34428.8 hPa SW 20.9 km/h 20.9 km/h 29 % 0 mm
15:00 1.4 °C -10.1 °C 34395 hPa WSW 17.9 km/h 17.9 km/h 29 % 0 mm
15:05 1.5 °C -9.9 °C 34395 hPa SSW 17.9 km/h 17.9 km/h 29 % 0 mm
15:10 1.4 °C -10.1 °C 34395 hPa SW 23.8 km/h 23.8 km/h 29 % 0 mm
15:15 1.3 °C -9.9 °C 34428.8 hPa West 11.9 km/h 11.9 km/h 30 % 0 mm
15:20 1.3 °C -10.1 °C 34428.8 hPa SSW 25.4 km/h 25.4 km/h 29 % 0 mm
15:25 1.3 °C -9.9 °C 34428.8 hPa WSW 22.5 km/h 22.5 km/h 30 % 0 mm
15:30 1.3 °C -9.8 °C 34395 hPa SW 15 km/h 15 km/h 30 % 0 mm
15:35 1.4 °C -9.8 °C 34395 hPa WSW 23.8 km/h 23.8 km/h 30 % 0 mm
15:37 1.3 °C -9.8 °C 34395 hPa NNW 15 km/h 15 km/h 30 % 0 mm
15:42 1.6 °C -9.6 °C 34395 hPa SSW 15.3 km/h 15.3 km/h 30 % 0 mm
15:47 1.4 °C -9.8 °C 34395 hPa SW 26.9 km/h 26.9 km/h 30 % 0 mm
15:52 1.3 °C -9.9 °C 34395 hPa South 22.5 km/h 22.5 km/h 30 % 0 mm
15:57 1.2 °C -9.9 °C 34395 hPa South 17.9 km/h 17.9 km/h 30 % 0 mm
15:59 1.3 °C -9.8 °C 34395 hPa SSW 15 km/h 15 km/h 30 % 0 mm
16:04 1.3 °C -9.8 °C 34395 hPa SW 20.3 km/h 20.3 km/h 30 % 0 mm
16:09 1.2 °C -9.9 °C 34395 hPa WSW 15 km/h 15 km/h 30 % 0 mm
16:14 1.3 °C -9.8 °C 34395 hPa SW 17.9 km/h 17.9 km/h 30 % 0 mm
16:19 1.4 °C -9.7 °C 34395 hPa SSW 17.9 km/h 17.9 km/h 30 % 0 mm
16:24 1.5 °C -9.7 °C 34395 hPa SW 15 km/h 15 km/h 30 % 0 mm
16:29 1.5 °C -9.7 °C 34395 hPa SW 26.9 km/h 26.9 km/h 30 % 0 mm
16:34 1.3 °C -9.9 °C 34395 hPa SW 23.8 km/h 23.8 km/h 30 % 0 mm
16:39 1.2 °C -9.9 °C 34395 hPa SW 22.5 km/h 22.5 km/h 30 % 0 mm
16:44 1.3 °C -9.8 °C 34395 hPa ESE 17.9 km/h 17.9 km/h 30 % 0 mm
16:49 1.2 °C -9.9 °C 34395 hPa South 20.9 km/h 20.9 km/h 30 % 0 mm
16:54 1.1 °C -10 °C 34395 hPa South 16.6 km/h 16.6 km/h 30 % 0 mm
16:59 1.1 °C -10 °C 34395 hPa SSE 18.3 km/h 18.3 km/h 30 % 0 mm
17:04 0.9 °C -10.2 °C 34428.8 hPa SSW 26.9 km/h 26.9 km/h 30 % 0 mm
17:09 1 °C -10.1 °C 34428.8 hPa SSE 20.9 km/h 20.9 km/h 30 % 0 mm
17:14 1 °C -9.8 °C 34428.8 hPa SSW 23.8 km/h 23.8 km/h 31 % 0 mm
17:19 1 °C -9.8 °C 34395 hPa WSW 23.8 km/h 23.8 km/h 31 % 0 mm
17:24 1 °C -9.8 °C 34395 hPa SW 20.9 km/h 20.9 km/h 31 % 0 mm
17:29 0.9 °C -9.9 °C 34395 hPa SW 20.9 km/h 20.9 km/h 31 % 0 mm
17:34 1 °C -9.8 °C 34395 hPa SW 22.5 km/h 22.5 km/h 31 % 0 mm
17:39 0.8 °C -9.7 °C 34395 hPa SSE 17.9 km/h 17.9 km/h 32 % 0 mm
17:44 0.8 °C -9.7 °C 34395 hPa SW 23.8 km/h 23.8 km/h 32 % 0 mm
17:49 0.9 °C -9.7 °C 34395 hPa South 20.9 km/h 20.9 km/h 32 % 0 mm
17:54 0.8 °C -9.8 °C 34395 hPa SSW 20.9 km/h 20.9 km/h 32 % 0 mm
17:59 0.5 °C -10 °C 34395 hPa SW 27.2 km/h 27.2 km/h 32 % 0 mm
18:04 0.6 °C -9.9 °C 34395 hPa WSW 9 km/h 10.3 km/h 32 % 0 mm
18:09 0.5 °C -9.7 °C 34395 hPa SE 9 km/h 9 km/h 33 % 0 mm
18:14 0.4 °C -9.8 °C 34395 hPa SW 17.9 km/h 17.9 km/h 33 % 0 mm
18:19 0.4 °C -9.8 °C 34395 hPa SSW 9 km/h 9 km/h 33 % 0 mm
18:24 0.5 °C -9.7 °C 34395 hPa South 11.9 km/h 11.9 km/h 33 % 0 mm
18:29 0.4 °C -9.8 °C 34395 hPa WSW 15 km/h 15 km/h 33 % 0 mm
18:34 0.3 °C -9.9 °C 34395 hPa SW 15 km/h 15 km/h 33 % 0 mm
18:35 0.3 °C -9.9 °C 34395 hPa WSW 15 km/h 15 km/h 33 % 0 mm
18:40 0.3 °C -9.7 °C 34395 hPa SW 15 km/h 15 km/h 34 % 0 mm
18:45 0.2 °C -9.8 °C 34395 hPa SW 20.9 km/h 20.9 km/h 34 % 0 mm
18:50 0.1 °C -9.8 °C 34395 hPa SSE 17.9 km/h 17.9 km/h 34 % 0 mm
18:55 -0.1 °C -9.7 °C 34395 hPa WSW 15 km/h 15 km/h 35 % 0 mm
18:57 -0.2 °C -9.8 °C 34395 hPa South 20.9 km/h 20.9 km/h 35 % 0 mm
19:02 -0.2 °C -9.8 °C 34395 hPa West 14 km/h 14 km/h 35 % 0 mm
19:07 -0.2 °C -9.8 °C 34395 hPa SW 17.9 km/h 17.9 km/h 35 % 0 mm
19:12 -0.3 °C -9.9 °C 34395 hPa SW 16.6 km/h 16.6 km/h 35 % 0 mm
19:15 -4 °C -9.1 °C 34462.7 hPa SW 5.1 km/h 5.1 km/h 57 % 0 mm
19:17 -0.4 °C -9.8 °C 34395 hPa SSW 23.8 km/h 23.8 km/h 36 % 0 mm
19:22 -0.5 °C -9.8 °C 34395 hPa WSW 28.2 km/h 28.2 km/h 36 % 0 mm
19:25 -4.1 °C -9.1 °C 34462.7 hPa SW 2.6 km/h 5.1 km/h 57 % 0 mm
19:27 -0.6 °C -9.7 °C 34395 hPa WSW 20.9 km/h 20.9 km/h 37 % 0 mm
19:32 -0.8 °C -9.8 °C 34395 hPa SSW 26.9 km/h 26.9 km/h 37 % 0 mm
19:35 -4.1 °C -9 °C 34462.7 hPa WSW 2.6 km/h 5.1 km/h 58 % 0 mm
19:37 -0.8 °C -9.7 °C 34395 hPa SW 17.9 km/h 17.9 km/h 38 % 0 mm
19:42 -0.8 °C -9.7 °C 34395 hPa South 11.9 km/h 11.9 km/h 38 % 0 mm
19:45 -4.2 °C -9.1 °C 34462.7 hPa SW 5.1 km/h 5.1 km/h 58 % 0 mm
19:47 -0.9 °C -9.8 °C 34395 hPa SW 23.8 km/h 23.8 km/h 38 % 0 mm
19:52 -1.1 °C -9.9 °C 34395 hPa South 15 km/h 15 km/h 38 % 0 mm
19:57 -1.1 °C -9.7 °C 34395 hPa South 17.9 km/h 17.9 km/h 39 % 0 mm
20:02 -1.1 °C -9.7 °C 34395 hPa SW 10.3 km/h 10.3 km/h 39 % 0 mm
20:05 -4.2 °C -9.1 °C 34462.7 hPa WSW 2.6 km/h 5.1 km/h 58 % 0 mm
20:07 -1.2 °C -9.8 °C 34395 hPa SSW 11.9 km/h 11.9 km/h 39 % 0 mm
20:12 -1.3 °C -9.9 °C 34395 hPa SSW 15 km/h 15 km/h 39 % 0 mm
20:15 -4.2 °C -8.9 °C 34462.7 hPa WSW 5.1 km/h 5.1 km/h 59 % 0 mm
20:17 -1.4 °C -9.9 °C 34395 hPa SSW 11.9 km/h 11.9 km/h 39 % 0 mm
20:22 -1.4 °C -10 °C 34395 hPa WSW 15 km/h 15 km/h 39 % 0 mm
20:25 -4.3 °C -9 °C 34462.7 hPa WSW 2.6 km/h 10.3 km/h 59 % 0 mm
20:27 -1.6 °C -9.9 °C 34395 hPa South 23.8 km/h 23.8 km/h 40 % 0 mm
20:32 -1.7 °C -9.8 °C 34395 hPa West 9 km/h 12.2 km/h 41 % 0 mm
20:35 -4.3 °C -8.9 °C 34462.7 hPa WSW 2.6 km/h 7.7 km/h 60 % 0 mm
20:37 -1.8 °C -9.9 °C 34395 hPa SW 9 km/h 9 km/h 41 % 0 mm
20:42 -1.8 °C -9.9 °C 34395 hPa SW 15 km/h 15 km/h 41 % 0 mm
20:45 -4.4 °C -9 °C 34462.7 hPa WSW 2.6 km/h 10.3 km/h 60 % 0 mm
20:47 -1.9 °C -9.8 °C 34395 hPa WSW 15 km/h 15 km/h 42 % 0 mm
20:52 -2 °C -9.9 °C 34395 hPa SSW 11.9 km/h 11.9 km/h 42 % 0 mm
20:55 -4.4 °C -9 °C 34462.7 hPa WSW 2.6 km/h 5.1 km/h 60 % 0 mm
20:57 -2.2 °C -9.8 °C 34395 hPa SW 9 km/h 9 km/h 43 % 0 mm
21:02 -2.2 °C -9.8 °C 34395 hPa SSW 15.6 km/h 15.6 km/h 43 % 0 mm
21:05 -4.5 °C -8.9 °C 34462.7 hPa WSW 2.6 km/h 7.7 km/h 61 % 0 mm
21:07 -2.3 °C -9.7 °C 34395 hPa SW 6.8 km/h 6.8 km/h 44 % 0 mm
21:12 -2.3 °C -9.8 °C 34395 hPa SW 15 km/h 15 km/h 44 % 0 mm
21:15 -4.6 °C -8.8 °C 34462.7 hPa WSW 2.6 km/h 7.7 km/h 62 % 0 mm
21:17 -2.4 °C -9.7 °C 34395 hPa South 23.8 km/h 23.8 km/h 45 % 0 mm
21:22 -2.6 °C -9.8 °C 34395 hPa SSE 9 km/h 9 km/h 45 % 0 mm
21:25 -4.6 °C -8.8 °C 34462.7 hPa WSW 2.6 km/h 5.1 km/h 63 % 0 mm
21:27 -2.6 °C -9.8 °C 34395 hPa SSW 6.8 km/h 6.8 km/h 45 % 0 mm
21:32 -2.7 °C -9.9 °C 34395 hPa WSW 9 km/h 9 km/h 45 % 0 mm
21:35 -4.7 °C -8.8 °C 34462.7 hPa SW 2.6 km/h 7.7 km/h 63 % 0 mm
21:37 -2.8 °C -9.8 °C 34395 hPa SSW 11.9 km/h 11.9 km/h 46 % 0 mm
21:42 -2.8 °C -9.7 °C 34395 hPa SW 9 km/h 9 km/h 47 % 0 mm
21:45 -4.7 °C -8.8 °C 34462.7 hPa WSW 2.6 km/h 7.7 km/h 63 % 0 mm
21:47 -2.9 °C -9.7 °C 34395 hPa SSE 9 km/h 9 km/h 47 % 0 mm
21:52 -2.9 °C -9.6 °C 34395 hPa SW 9 km/h 9 km/h 48 % 0 mm
21:55 -4.8 °C -8.9 °C 34428.8 hPa WSW 2.6 km/h 5.1 km/h 63 % 0 mm
21:57 -3 °C -9.4 °C 34395 hPa SW 4.2 km/h 4.2 km/h 49 % 0 mm
22:02 -3.1 °C -9.6 °C 34395 hPa WSW 9 km/h 9 km/h 49 % 0 mm
22:05 -4.8 °C -9 °C 34428.8 hPa WSW 5.1 km/h 5.1 km/h 63 % 0 mm
22:07 -3.2 °C -9.6 °C 34395 hPa SSW 9 km/h 9 km/h 49 % 0 mm
22:12 -3.2 °C -9.5 °C 34395 hPa Calm     50 % 0 mm
22:15 -5 °C -9 °C 34428.8 hPa Calm   5.1 km/h 64 % 0 mm
22:17 -3.3 °C -9.5 °C 34395 hPa SSW 11.9 km/h 11.9 km/h 50 % 0 mm
22:22 -3.3 °C -9.3 °C 34395 hPa SW 6.3 km/h 6.3 km/h 51 % 0 mm
22:25 -5.1 °C -9.1 °C 34428.8 hPa SW 2.6 km/h 2.6 km/h 64 % 0 mm
22:27 -3.3 °C -9.4 °C 34395 hPa SW 3.1 km/h   51 % 0 mm
22:32 -3.3 °C -9.4 °C 34428.8 hPa WSW 9 km/h 9 km/h 51 % 0 mm
22:35 -5.1 °C -9.1 °C 34428.8 hPa WSW 2.6 km/h 5.1 km/h 64 % 0 mm
22:37 -3.4 °C -9.4 °C 34428.8 hPa SSW 6 km/h 6 km/h 51 % 0 mm
22:42 -3.4 °C -9.3 °C 34428.8 hPa SW 6 km/h 6 km/h 52 % 0 mm
22:45 -3.4 °C -9.3 °C 34428.8 hPa Calm     52 % 0 mm
22:48 -3.4 °C -9.3 °C 34428.8 hPa SW 6 km/h 6 km/h 52 % 0 mm
22:50 -3.5 °C -9.4 °C 34428.8 hPa SW 11.9 km/h 11.9 km/h 52 % 0 mm
22:55 -3.6 °C -9.4 °C 34428.8 hPa SW 6.3 km/h 6.3 km/h 52 % 0 mm
23:00 -3.6 °C -9.3 °C 34462.7 hPa SW 3.1 km/h   53 % 0 mm
23:05 -3.6 °C -9.3 °C 34462.7 hPa WSW 3.1 km/h   53 % 0 mm
23:10 -3.6 °C -9.2 °C 34462.7 hPa SSE 6.8 km/h   54 % 0 mm
23:15 -3.7 °C -9.2 °C 34462.7 hPa South 3.1 km/h   54 % 0 mm
23:20 -3.7 °C -9.2 °C 34462.7 hPa West 2.3 km/h   54 % 0 mm
23:25 -3.7 °C -9.2 °C 34462.7 hPa WSW 3.7 km/h 3.7 km/h 54 % 0 mm
23:30 -3.7 °C -9.3 °C 34462.7 hPa SW 6.3 km/h 6.3 km/h 54 % 0 mm
23:35 -3.7 °C -9.3 °C 34462.7 hPa SW 6.3 km/h 6.3 km/h 54 % 0 mm
23:40 -3.8 °C -9.2 °C 34462.7 hPa SW 6.3 km/h   55 % 0 mm
23:45 -3.8 °C -9.2 °C 34462.7 hPa WSW 3.1 km/h 3.1 km/h 55 % 0 mm
23:50 -3.8 °C -9.4 °C 34462.7 hPa SW 9 km/h 9 km/h 54 % 0 mm
23:55 -3.9 °C -9.3 °C 34462.7 hPa SW 6 km/h 6 km/h 55 % 0 mm
Meteo Sesrovires
Elogis d' Weather Underground - 2 mb

Guio original per  Jim McMurry - jmcmurry@mwt.net Adaptat per a la plantilla per  Wim van der Kuil - Leuven-Template.eu

Trobareu la nostra informacio del temps tambe a:

Weather Underground

AWEKAS